sensor_id;sensor_type;location;lat;lon;timestamp;temperature;humidity
60723;DHT22;46574;52.818;6.516;2024-03-08T00:00:41;2.30;99.90
60723;DHT22;46574;52.818;6.516;2024-03-08T00:03:08;2.30;99.90
60723;DHT22;46574;52.818;6.516;2024-03-08T00:05:36;2.30;99.90
60723;DHT22;46574;52.818;6.516;2024-03-08T00:08:05;2.30;99.90
60723;DHT22;46574;52.818;6.516;2024-03-08T00:10:31;2.30;99.90
60723;DHT22;46574;52.818;6.516;2024-03-08T00:12:57;2.20;99.90
60723;DHT22;46574;52.818;6.516;2024-03-08T00:15:23;2.20;99.90
60723;DHT22;46574;52.818;6.516;2024-03-08T00:17:49;2.20;99.90
60723;DHT22;46574;52.818;6.516;2024-03-08T00:20:15;2.20;99.90
60723;DHT22;46574;52.818;6.516;2024-03-08T00:22:43;2.20;99.90
60723;DHT22;46574;52.818;6.516;2024-03-08T00:25:09;2.20;99.90
60723;DHT22;46574;52.818;6.516;2024-03-08T00:27:35;2.10;99.90
60723;DHT22;46574;52.818;6.516;2024-03-08T00:30:02;2.10;99.90
60723;DHT22;46574;52.818;6.516;2024-03-08T00:32:28;2.10;99.90
60723;DHT22;46574;52.818;6.516;2024-03-08T00:34:54;2.10;99.90
60723;DHT22;46574;52.818;6.516;2024-03-08T00:37:20;2.10;99.90
60723;DHT22;46574;52.818;6.516;2024-03-08T00:39:50;2.00;99.90
60723;DHT22;46574;52.818;6.516;2024-03-08T00:42:17;2.00;99.90
60723;DHT22;46574;52.818;6.516;2024-03-08T00:44:43;2.00;99.90
60723;DHT22;46574;52.818;6.516;2024-03-08T00:47:08;2.00;99.90
60723;DHT22;46574;52.818;6.516;2024-03-08T00:49:35;2.00;99.90
60723;DHT22;46574;52.818;6.516;2024-03-08T00:52:02;2.00;99.90
60723;DHT22;46574;52.818;6.516;2024-03-08T00:54:27;1.90;99.90
60723;DHT22;46574;52.818;6.516;2024-03-08T00:56:53;1.90;99.90
60723;DHT22;46574;52.818;6.516;2024-03-08T00:59:19;1.90;99.90
60723;DHT22;46574;52.818;6.516;2024-03-08T01:01:45;1.80;99.90
60723;DHT22;46574;52.818;6.516;2024-03-08T01:04:11;1.80;99.90
60723;DHT22;46574;52.818;6.516;2024-03-08T01:06:37;1.80;99.90
60723;DHT22;46574;52.818;6.516;2024-03-08T01:09:02;1.80;99.90
60723;DHT22;46574;52.818;6.516;2024-03-08T01:11:28;1.70;99.90
60723;DHT22;46574;52.818;6.516;2024-03-08T01:13:54;1.70;99.90
60723;DHT22;46574;52.818;6.516;2024-03-08T01:16:20;1.70;99.90
60723;DHT22;46574;52.818;6.516;2024-03-08T01:18:47;1.70;99.90
60723;DHT22;46574;52.818;6.516;2024-03-08T01:21:12;1.70;99.90
60723;DHT22;46574;52.818;6.516;2024-03-08T01:23:38;1.70;99.90
60723;DHT22;46574;52.818;6.516;2024-03-08T01:26:04;1.70;99.90
60723;DHT22;46574;52.818;6.516;2024-03-08T01:28:30;1.70;99.90
60723;DHT22;46574;52.818;6.516;2024-03-08T01:30:56;1.70;99.90
60723;DHT22;46574;52.818;6.516;2024-03-08T01:33:23;1.70;99.90
60723;DHT22;46574;52.818;6.516;2024-03-08T01:35:53;1.70;99.90
60723;DHT22;46574;52.818;6.516;2024-03-08T01:38:19;1.70;99.90
60723;DHT22;46574;52.818;6.516;2024-03-08T01:40:47;1.70;99.90
60723;DHT22;46574;52.818;6.516;2024-03-08T01:43:42;1.70;99.90
60723;DHT22;46574;52.818;6.516;2024-03-08T01:46:08;1.60;99.90
60723;DHT22;46574;52.818;6.516;2024-03-08T01:48:34;1.60;99.90
60723;DHT22;46574;52.818;6.516;2024-03-08T01:51:00;1.60;99.90
60723;DHT22;46574;52.818;6.516;2024-03-08T01:53:30;1.60;99.90
60723;DHT22;46574;52.818;6.516;2024-03-08T01:55:57;1.60;99.90
60723;DHT22;46574;52.818;6.516;2024-03-08T01:58:23;1.60;99.90
60723;DHT22;46574;52.818;6.516;2024-03-08T02:00:49;1.50;99.90
60723;DHT22;46574;52.818;6.516;2024-03-08T02:03:18;1.50;99.90
60723;DHT22;46574;52.818;6.516;2024-03-08T02:05:44;1.50;99.90
60723;DHT22;46574;52.818;6.516;2024-03-08T02:08:10;1.50;99.90
60723;DHT22;46574;52.818;6.516;2024-03-08T02:10:41;1.40;99.90
60723;DHT22;46574;52.818;6.516;2024-03-08T02:13:07;1.50;99.90
60723;DHT22;46574;52.818;6.516;2024-03-08T02:15:58;1.40;99.90
60723;DHT22;46574;52.818;6.516;2024-03-08T02:18:28;1.50;99.90
60723;DHT22;46574;52.818;6.516;2024-03-08T02:21:01;1.50;99.90
60723;DHT22;46574;52.818;6.516;2024-03-08T02:23:30;1.50;99.90
60723;DHT22;46574;52.818;6.516;2024-03-08T02:25:56;1.50;99.90
60723;DHT22;46574;52.818;6.516;2024-03-08T02:28:23;1.50;99.90
60723;DHT22;46574;52.818;6.516;2024-03-08T02:30:51;1.40;99.90
60723;DHT22;46574;52.818;6.516;2024-03-08T02:33:20;1.50;99.90
60723;DHT22;46574;52.818;6.516;2024-03-08T02:35:46;1.40;99.90
60723;DHT22;46574;52.818;6.516;2024-03-08T02:38:16;1.50;99.90
60723;DHT22;46574;52.818;6.516;2024-03-08T02:40:46;1.50;99.90
60723;DHT22;46574;52.818;6.516;2024-03-08T02:43:13;1.50;99.90
60723;DHT22;46574;52.818;6.516;2024-03-08T02:45:40;1.50;99.90
60723;DHT22;46574;52.818;6.516;2024-03-08T02:48:07;1.50;99.90
60723;DHT22;46574;52.818;6.516;2024-03-08T02:50:33;1.40;99.90
60723;DHT22;46574;52.818;6.516;2024-03-08T02:53:00;1.40;99.90
60723;DHT22;46574;52.818;6.516;2024-03-08T02:55:26;1.40;99.90
60723;DHT22;46574;52.818;6.516;2024-03-08T02:57:52;1.40;99.90
60723;DHT22;46574;52.818;6.516;2024-03-08T03:00:20;1.40;99.90
60723;DHT22;46574;52.818;6.516;2024-03-08T03:02:47;1.40;99.90
60723;DHT22;46574;52.818;6.516;2024-03-08T03:05:13;1.40;99.90
60723;DHT22;46574;52.818;6.516;2024-03-08T03:07:39;1.40;99.90
60723;DHT22;46574;52.818;6.516;2024-03-08T03:10:05;1.40;99.90
60723;DHT22;46574;52.818;6.516;2024-03-08T03:12:32;1.40;99.90
60723;DHT22;46574;52.818;6.516;2024-03-08T03:14:59;1.40;99.90
60723;DHT22;46574;52.818;6.516;2024-03-08T03:17:26;1.40;99.90
60723;DHT22;46574;52.818;6.516;2024-03-08T03:19:52;1.40;99.90
60723;DHT22;46574;52.818;6.516;2024-03-08T03:22:18;1.40;99.90
60723;DHT22;46574;52.818;6.516;2024-03-08T03:24:47;1.40;99.90
60723;DHT22;46574;52.818;6.516;2024-03-08T03:27:13;1.40;99.90
60723;DHT22;46574;52.818;6.516;2024-03-08T03:29:41;1.40;99.90
60723;DHT22;46574;52.818;6.516;2024-03-08T03:32:14;1.40;99.90
60723;DHT22;46574;52.818;6.516;2024-03-08T03:34:41;1.50;99.90
60723;DHT22;46574;52.818;6.516;2024-03-08T03:37:07;1.40;99.90
60723;DHT22;46574;52.818;6.516;2024-03-08T03:39:39;1.50;99.90
60723;DHT22;46574;52.818;6.516;2024-03-08T03:42:16;1.50;99.90
60723;DHT22;46574;52.818;6.516;2024-03-08T03:44:46;1.50;99.90
60723;DHT22;46574;52.818;6.516;2024-03-08T03:47:13;1.50;99.90
60723;DHT22;46574;52.818;6.516;2024-03-08T03:49:40;1.50;99.90
60723;DHT22;46574;52.818;6.516;2024-03-08T03:52:06;1.50;99.90
60723;DHT22;46574;52.818;6.516;2024-03-08T03:54:31;1.50;99.90
60723;DHT22;46574;52.818;6.516;2024-03-08T03:56:58;1.50;99.90
60723;DHT22;46574;52.818;6.516;2024-03-08T03:59:24;1.50;99.90
60723;DHT22;46574;52.818;6.516;2024-03-08T04:01:50;1.50;99.90
60723;DHT22;46574;52.818;6.516;2024-03-08T04:04:15;1.50;99.90
60723;DHT22;46574;52.818;6.516;2024-03-08T04:06:41;1.50;99.90
60723;DHT22;46574;52.818;6.516;2024-03-08T04:09:07;1.50;99.90
60723;DHT22;46574;52.818;6.516;2024-03-08T04:11:33;1.50;99.90
60723;DHT22;46574;52.818;6.516;2024-03-08T04:13:59;1.50;99.90
60723;DHT22;46574;52.818;6.516;2024-03-08T04:16:24;1.50;99.90
60723;DHT22;46574;52.818;6.516;2024-03-08T04:18:51;1.50;99.90
60723;DHT22;46574;52.818;6.516;2024-03-08T04:21:17;1.40;99.90
60723;DHT22;46574;52.818;6.516;2024-03-08T04:23:44;1.40;99.90
60723;DHT22;46574;52.818;6.516;2024-03-08T04:26:11;1.40;99.90
60723;DHT22;46574;52.818;6.516;2024-03-08T04:28:36;1.30;99.90
60723;DHT22;46574;52.818;6.516;2024-03-08T04:31:03;1.30;99.90
60723;DHT22;46574;52.818;6.516;2024-03-08T04:33:29;1.40;99.90
60723;DHT22;46574;52.818;6.516;2024-03-08T04:35:55;1.30;99.90
60723;DHT22;46574;52.818;6.516;2024-03-08T04:38:21;1.30;99.90
60723;DHT22;46574;52.818;6.516;2024-03-08T04:40:47;1.30;99.90
60723;DHT22;46574;52.818;6.516;2024-03-08T04:43:12;1.30;99.90
60723;DHT22;46574;52.818;6.516;2024-03-08T04:45:39;1.30;99.90
60723;DHT22;46574;52.818;6.516;2024-03-08T04:48:06;1.20;99.90
60723;DHT22;46574;52.818;6.516;2024-03-08T04:50:33;1.20;99.90
60723;DHT22;46574;52.818;6.516;2024-03-08T04:52:59;1.20;99.90
60723;DHT22;46574;52.818;6.516;2024-03-08T04:55:25;1.20;99.90
60723;DHT22;46574;52.818;6.516;2024-03-08T04:57:50;1.20;99.90
60723;DHT22;46574;52.818;6.516;2024-03-08T05:00:16;1.20;99.90
60723;DHT22;46574;52.818;6.516;2024-03-08T05:02:42;1.20;99.90
60723;DHT22;46574;52.818;6.516;2024-03-08T05:05:08;1.10;99.90
60723;DHT22;46574;52.818;6.516;2024-03-08T05:07:38;1.10;99.90
60723;DHT22;46574;52.818;6.516;2024-03-08T05:10:06;1.10;99.90
60723;DHT22;46574;52.818;6.516;2024-03-08T05:12:35;1.10;99.90
60723;DHT22;46574;52.818;6.516;2024-03-08T05:15:02;1.10;99.90
60723;DHT22;46574;52.818;6.516;2024-03-08T05:17:28;1.00;99.90
60723;DHT22;46574;52.818;6.516;2024-03-08T05:19:55;1.00;99.90
60723;DHT22;46574;52.818;6.516;2024-03-08T05:22:20;1.00;99.90
60723;DHT22;46574;52.818;6.516;2024-03-08T05:24:46;1.00;99.90
60723;DHT22;46574;52.818;6.516;2024-03-08T05:27:11;0.90;99.90
60723;DHT22;46574;52.818;6.516;2024-03-08T05:29:38;0.90;99.90
60723;DHT22;46574;52.818;6.516;2024-03-08T05:32:04;0.90;99.90
60723;DHT22;46574;52.818;6.516;2024-03-08T05:34:30;0.90;99.90
60723;DHT22;46574;52.818;6.516;2024-03-08T05:36:55;0.90;99.90
60723;DHT22;46574;52.818;6.516;2024-03-08T05:39:21;0.90;99.90
60723;DHT22;46574;52.818;6.516;2024-03-08T05:41:47;0.80;99.90
60723;DHT22;46574;52.818;6.516;2024-03-08T05:44:13;0.90;99.90
60723;DHT22;46574;52.818;6.516;2024-03-08T05:46:39;0.80;99.90
60723;DHT22;46574;52.818;6.516;2024-03-08T05:49:06;0.80;99.90
60723;DHT22;46574;52.818;6.516;2024-03-08T05:51:33;0.80;99.90
60723;DHT22;46574;52.818;6.516;2024-03-08T05:54:02;0.80;99.90
60723;DHT22;46574;52.818;6.516;2024-03-08T05:56:29;0.90;99.90
60723;DHT22;46574;52.818;6.516;2024-03-08T05:58:55;0.90;99.90
60723;DHT22;46574;52.818;6.516;2024-03-08T06:01:22;0.90;99.90
60723;DHT22;46574;52.818;6.516;2024-03-08T06:03:47;0.90;99.90
60723;DHT22;46574;52.818;6.516;2024-03-08T06:06:14;0.90;99.90
60723;DHT22;46574;52.818;6.516;2024-03-08T06:08:43;0.90;99.90
60723;DHT22;46574;52.818;6.516;2024-03-08T06:11:09;0.90;99.90
60723;DHT22;46574;52.818;6.516;2024-03-08T06:13:35;0.90;99.90
60723;DHT22;46574;52.818;6.516;2024-03-08T06:16:01;0.90;99.90
60723;DHT22;46574;52.818;6.516;2024-03-08T06:18:30;0.80;99.90
60723;DHT22;46574;52.818;6.516;2024-03-08T06:20:56;0.90;99.90
60723;DHT22;46574;52.818;6.516;2024-03-08T06:23:22;0.90;99.90
60723;DHT22;46574;52.818;6.516;2024-03-08T06:25:48;0.90;99.90
60723;DHT22;46574;52.818;6.516;2024-03-08T06:28:14;0.90;99.90
60723;DHT22;46574;52.818;6.516;2024-03-08T06:30:40;0.90;99.90
60723;DHT22;46574;52.818;6.516;2024-03-08T06:33:06;0.90;99.90
60723;DHT22;46574;52.818;6.516;2024-03-08T06:35:32;0.90;99.90
60723;DHT22;46574;52.818;6.516;2024-03-08T06:37:58;0.90;99.90
60723;DHT22;46574;52.818;6.516;2024-03-08T06:40:24;0.90;99.90
60723;DHT22;46574;52.818;6.516;2024-03-08T06:42:50;0.90;99.90
60723;DHT22;46574;52.818;6.516;2024-03-08T06:45:17;0.90;99.90
60723;DHT22;46574;52.818;6.516;2024-03-08T06:47:46;1.00;99.90
60723;DHT22;46574;52.818;6.516;2024-03-08T06:50:12;1.00;99.90
60723;DHT22;46574;52.818;6.516;2024-03-08T06:52:39;1.10;99.90
60723;DHT22;46574;52.818;6.516;2024-03-08T06:55:05;1.00;99.90
60723;DHT22;46574;52.818;6.516;2024-03-08T06:57:32;1.10;99.90
60723;DHT22;46574;52.818;6.516;2024-03-08T06:59:57;1.10;99.90
60723;DHT22;46574;52.818;6.516;2024-03-08T07:02:23;1.10;99.90
60723;DHT22;46574;52.818;6.516;2024-03-08T07:04:52;1.20;99.90
60723;DHT22;46574;52.818;6.516;2024-03-08T07:07:18;1.20;99.90
60723;DHT22;46574;52.818;6.516;2024-03-08T07:09:46;1.30;99.90
60723;DHT22;46574;52.818;6.516;2024-03-08T07:12:11;1.30;99.90
60723;DHT22;46574;52.818;6.516;2024-03-08T07:14:39;1.40;99.90
60723;DHT22;46574;52.818;6.516;2024-03-08T07:17:07;1.40;99.90
60723;DHT22;46574;52.818;6.516;2024-03-08T07:19:34;1.50;99.90
60723;DHT22;46574;52.818;6.516;2024-03-08T07:22:00;1.50;99.90
60723;DHT22;46574;52.818;6.516;2024-03-08T07:24:29;1.60;99.90
60723;DHT22;46574;52.818;6.516;2024-03-08T07:27:06;1.60;99.90
60723;DHT22;46574;52.818;6.516;2024-03-08T07:29:35;1.70;99.90
60723;DHT22;46574;52.818;6.516;2024-03-08T07:32:01;1.70;99.90
60723;DHT22;46574;52.818;6.516;2024-03-08T07:34:45;1.80;99.90
60723;DHT22;46574;52.818;6.516;2024-03-08T07:37:11;1.80;99.90
60723;DHT22;46574;52.818;6.516;2024-03-08T07:39:37;1.90;99.90
60723;DHT22;46574;52.818;6.516;2024-03-08T07:42:04;1.90;99.90
60723;DHT22;46574;52.818;6.516;2024-03-08T07:44:30;2.00;99.90
60723;DHT22;46574;52.818;6.516;2024-03-08T07:46:58;2.00;99.90
60723;DHT22;46574;52.818;6.516;2024-03-08T07:49:24;2.10;99.90
60723;DHT22;46574;52.818;6.516;2024-03-08T07:51:50;2.20;99.90
60723;DHT22;46574;52.818;6.516;2024-03-08T07:54:15;2.20;99.90
60723;DHT22;46574;52.818;6.516;2024-03-08T07:56:41;2.20;99.90
60723;DHT22;46574;52.818;6.516;2024-03-08T07:59:08;2.30;99.90
60723;DHT22;46574;52.818;6.516;2024-03-08T08:01:33;2.40;99.90
60723;DHT22;46574;52.818;6.516;2024-03-08T08:03:59;2.50;99.90
60723;DHT22;46574;52.818;6.516;2024-03-08T08:06:27;2.50;99.90
60723;DHT22;46574;52.818;6.516;2024-03-08T08:08:53;2.60;99.90
60723;DHT22;46574;52.818;6.516;2024-03-08T08:11:19;2.60;99.90
60723;DHT22;46574;52.818;6.516;2024-03-08T08:13:45;2.70;99.90
60723;DHT22;46574;52.818;6.516;2024-03-08T08:16:11;2.80;99.90
60723;DHT22;46574;52.818;6.516;2024-03-08T08:18:38;2.80;99.90
60723;DHT22;46574;52.818;6.516;2024-03-08T08:21:05;2.90;99.90
60723;DHT22;46574;52.818;6.516;2024-03-08T08:23:32;3.00;99.90
60723;DHT22;46574;52.818;6.516;2024-03-08T08:25:58;3.00;99.90
60723;DHT22;46574;52.818;6.516;2024-03-08T08:28:23;3.10;99.90
60723;DHT22;46574;52.818;6.516;2024-03-08T08:30:50;3.20;99.90
60723;DHT22;46574;52.818;6.516;2024-03-08T08:33:16;3.20;99.90
60723;DHT22;46574;52.818;6.516;2024-03-08T08:35:41;3.30;99.90
60723;DHT22;46574;52.818;6.516;2024-03-08T08:38:08;3.40;99.90
60723;DHT22;46574;52.818;6.516;2024-03-08T08:40:34;3.50;99.90
60723;DHT22;46574;52.818;6.516;2024-03-08T08:43:01;3.50;99.90
60723;DHT22;46574;52.818;6.516;2024-03-08T08:45:30;3.60;99.90
60723;DHT22;46574;52.818;6.516;2024-03-08T08:47:56;3.60;99.90
60723;DHT22;46574;52.818;6.516;2024-03-08T08:50:22;3.70;99.90
60723;DHT22;46574;52.818;6.516;2024-03-08T08:52:49;3.80;99.90
60723;DHT22;46574;52.818;6.516;2024-03-08T08:55:15;3.80;99.90
60723;DHT22;46574;52.818;6.516;2024-03-08T08:57:41;3.90;99.90
60723;DHT22;46574;52.818;6.516;2024-03-08T09:00:07;4.00;99.90
60723;DHT22;46574;52.818;6.516;2024-03-08T09:02:36;4.00;99.90
60723;DHT22;46574;52.818;6.516;2024-03-08T09:05:03;4.10;99.90
60723;DHT22;46574;52.818;6.516;2024-03-08T09:07:29;4.10;99.90
60723;DHT22;46574;52.818;6.516;2024-03-08T09:09:55;4.20;99.90
60723;DHT22;46574;52.818;6.516;2024-03-08T09:12:24;4.30;99.90
60723;DHT22;46574;52.818;6.516;2024-03-08T09:14:50;4.40;99.90
60723;DHT22;46574;52.818;6.516;2024-03-08T09:17:16;4.40;99.90
60723;DHT22;46574;52.818;6.516;2024-03-08T09:19:48;4.50;99.90
60723;DHT22;46574;52.818;6.516;2024-03-08T09:22:14;4.60;99.90
60723;DHT22;46574;52.818;6.516;2024-03-08T09:24:40;4.70;99.90
60723;DHT22;46574;52.818;6.516;2024-03-08T09:27:05;4.70;99.90
60723;DHT22;46574;52.818;6.516;2024-03-08T09:29:31;4.80;99.90
60723;DHT22;46574;52.818;6.516;2024-03-08T09:31:57;4.90;99.90
60723;DHT22;46574;52.818;6.516;2024-03-08T09:34:22;5.00;99.90
60723;DHT22;46574;52.818;6.516;2024-03-08T09:36:49;5.00;99.90
60723;DHT22;46574;52.818;6.516;2024-03-08T09:39:16;5.10;99.90
60723;DHT22;46574;52.818;6.516;2024-03-08T09:41:45;5.20;99.90
60723;DHT22;46574;52.818;6.516;2024-03-08T09:44:14;5.20;99.90
60723;DHT22;46574;52.818;6.516;2024-03-08T09:46:40;5.30;99.90
60723;DHT22;46574;52.818;6.516;2024-03-08T09:49:06;5.40;99.90
60723;DHT22;46574;52.818;6.516;2024-03-08T09:51:34;5.50;99.90
60723;DHT22;46574;52.818;6.516;2024-03-08T09:54:02;5.60;99.90
60723;DHT22;46574;52.818;6.516;2024-03-08T09:56:35;5.70;99.90
60723;DHT22;46574;52.818;6.516;2024-03-08T09:59:02;5.80;99.90
60723;DHT22;46574;52.818;6.516;2024-03-08T10:01:53;6.00;99.90
60723;DHT22;46574;52.818;6.516;2024-03-08T10:04:24;6.10;99.90
60723;DHT22;46574;52.818;6.516;2024-03-08T10:06:51;6.30;99.90
60723;DHT22;46574;52.818;6.516;2024-03-08T10:09:17;6.40;99.90
60723;DHT22;46574;52.818;6.516;2024-03-08T10:11:45;6.60;99.90
60723;DHT22;46574;52.818;6.516;2024-03-08T10:14:11;6.70;99.90
60723;DHT22;46574;52.818;6.516;2024-03-08T10:16:41;6.80;99.90
60723;DHT22;46574;52.818;6.516;2024-03-08T10:19:07;6.90;99.90
60723;DHT22;46574;52.818;6.516;2024-03-08T10:21:33;7.00;99.90
60723;DHT22;46574;52.818;6.516;2024-03-08T10:23:59;7.10;99.90
60723;DHT22;46574;52.818;6.516;2024-03-08T10:26:24;7.20;99.90
60723;DHT22;46574;52.818;6.516;2024-03-08T10:28:51;7.30;99.90
60723;DHT22;46574;52.818;6.516;2024-03-08T10:31:19;7.30;99.90
60723;DHT22;46574;52.818;6.516;2024-03-08T10:33:47;7.40;99.90
60723;DHT22;46574;52.818;6.516;2024-03-08T10:36:14;7.50;99.90
60723;DHT22;46574;52.818;6.516;2024-03-08T10:38:41;7.60;99.90
60723;DHT22;46574;52.818;6.516;2024-03-08T10:41:12;7.70;99.90
60723;DHT22;46574;52.818;6.516;2024-03-08T10:44:04;7.80;99.90
60723;DHT22;46574;52.818;6.516;2024-03-08T10:47:02;7.90;99.90
60723;DHT22;46574;52.818;6.516;2024-03-08T10:49:36;8.00;99.90
60723;DHT22;46574;52.818;6.516;2024-03-08T10:52:05;8.10;99.90
60723;DHT22;46574;52.818;6.516;2024-03-08T10:54:34;8.20;99.90
60723;DHT22;46574;52.818;6.516;2024-03-08T10:57:05;8.20;99.90
60723;DHT22;46574;52.818;6.516;2024-03-08T10:59:31;8.30;99.90
60723;DHT22;46574;52.818;6.516;2024-03-08T11:01:59;8.30;99.90
60723;DHT22;46574;52.818;6.516;2024-03-08T11:04:25;8.30;99.90
60723;DHT22;46574;52.818;6.516;2024-03-08T11:06:51;8.30;99.90
60723;DHT22;46574;52.818;6.516;2024-03-08T11:14:48;8.40;99.90
60723;DHT22;46574;52.818;6.516;2024-03-08T11:18:03;8.40;99.90
60723;DHT22;46574;52.818;6.516;2024-03-08T11:20:11;8.50;99.90
60723;DHT22;46574;52.818;6.516;2024-03-08T11:23:02;8.60;99.90
60723;DHT22;46574;52.818;6.516;2024-03-08T11:25:39;8.70;99.90
60723;DHT22;46574;52.818;6.516;2024-03-08T11:28:27;8.70;99.90
60723;DHT22;46574;52.818;6.516;2024-03-08T11:33:30;8.80;99.90
60723;DHT22;46574;52.818;6.516;2024-03-08T11:38:32;8.90;99.90
60723;DHT22;46574;52.818;6.516;2024-03-08T11:40:58;8.90;99.90
60723;DHT22;46574;52.818;6.516;2024-03-08T11:43:24;8.90;99.90
60723;DHT22;46574;52.818;6.516;2024-03-08T11:45:50;8.90;99.90
60723;DHT22;46574;52.818;6.516;2024-03-08T11:48:16;8.90;99.90
60723;DHT22;46574;52.818;6.516;2024-03-08T11:50:42;8.90;99.90
60723;DHT22;46574;52.818;6.516;2024-03-08T11:53:08;9.00;99.90
60723;DHT22;46574;52.818;6.516;2024-03-08T11:55:34;9.10;99.90
60723;DHT22;46574;52.818;6.516;2024-03-08T11:58:05;9.10;99.90
60723;DHT22;46574;52.818;6.516;2024-03-08T12:00:34;9.10;99.90
60723;DHT22;46574;52.818;6.516;2024-03-08T12:03:07;9.10;99.90
60723;DHT22;46574;52.818;6.516;2024-03-08T12:05:35;9.10;99.90
60723;DHT22;46574;52.818;6.516;2024-03-08T12:08:04;9.10;99.90
60723;DHT22;46574;52.818;6.516;2024-03-08T12:10:34;9.20;99.90
60723;DHT22;46574;52.818;6.516;2024-03-08T12:13:00;9.30;99.90
60723;DHT22;46574;52.818;6.516;2024-03-08T12:15:27;9.30;99.90
60723;DHT22;46574;52.818;6.516;2024-03-08T12:17:54;9.40;99.90
60723;DHT22;46574;52.818;6.516;2024-03-08T12:20:23;9.50;99.90
60723;DHT22;46574;52.818;6.516;2024-03-08T12:22:50;9.50;99.90
60723;DHT22;46574;52.818;6.516;2024-03-08T12:25:19;9.50;99.90
60723;DHT22;46574;52.818;6.516;2024-03-08T12:27:46;9.60;99.90
60723;DHT22;46574;52.818;6.516;2024-03-08T12:30:18;9.50;99.90
60723;DHT22;46574;52.818;6.516;2024-03-08T12:35:23;9.60;99.90
60723;DHT22;46574;52.818;6.516;2024-03-08T12:37:56;9.60;99.90
60723;DHT22;46574;52.818;6.516;2024-03-08T12:40:29;9.70;99.90
60723;DHT22;46574;52.818;6.516;2024-03-08T12:43:00;9.80;99.90
60723;DHT22;46574;52.818;6.516;2024-03-08T12:45:26;9.80;99.90
60723;DHT22;46574;52.818;6.516;2024-03-08T12:47:53;9.90;99.90
60723;DHT22;46574;52.818;6.516;2024-03-08T12:50:20;10.00;99.90
60723;DHT22;46574;52.818;6.516;2024-03-08T12:52:46;10.00;99.90
60723;DHT22;46574;52.818;6.516;2024-03-08T12:55:12;10.10;99.90
60723;DHT22;46574;52.818;6.516;2024-03-08T12:57:38;10.10;99.90
60723;DHT22;46574;52.818;6.516;2024-03-08T13:00:04;10.20;99.90
60723;DHT22;46574;52.818;6.516;2024-03-08T13:02:31;10.20;99.90
60723;DHT22;46574;52.818;6.516;2024-03-08T13:05:00;10.20;99.90
60723;DHT22;46574;52.818;6.516;2024-03-08T13:07:26;10.30;99.90
60723;DHT22;46574;52.818;6.516;2024-03-08T13:09:53;10.30;99.90
60723;DHT22;46574;52.818;6.516;2024-03-08T13:12:20;10.30;99.90
60723;DHT22;46574;52.818;6.516;2024-03-08T13:14:46;10.40;99.90
60723;DHT22;46574;52.818;6.516;2024-03-08T13:17:13;10.40;99.90
60723;DHT22;46574;52.818;6.516;2024-03-08T13:19:38;10.50;99.90
60723;DHT22;46574;52.818;6.516;2024-03-08T13:22:05;10.50;99.90
60723;DHT22;46574;52.818;6.516;2024-03-08T13:24:31;10.60;99.90
60723;DHT22;46574;52.818;6.516;2024-03-08T13:26:57;10.80;99.90
60723;DHT22;46574;52.818;6.516;2024-03-08T13:29:23;11.00;99.90
60723;DHT22;46574;52.818;6.516;2024-03-08T13:31:49;11.20;99.90
60723;DHT22;46574;52.818;6.516;2024-03-08T13:34:17;11.20;99.90
60723;DHT22;46574;52.818;6.516;2024-03-08T13:36:44;11.10;99.90
60723;DHT22;46574;52.818;6.516;2024-03-08T13:39:11;11.10;99.90
60723;DHT22;46574;52.818;6.516;2024-03-08T13:41:46;11.40;99.90
60723;DHT22;46574;52.818;6.516;2024-03-08T13:44:12;11.40;99.90
60723;DHT22;46574;52.818;6.516;2024-03-08T13:46:37;11.70;99.90
60723;DHT22;46574;52.818;6.516;2024-03-08T13:49:05;11.80;99.90
60723;DHT22;46574;52.818;6.516;2024-03-08T13:51:33;11.90;99.90
60723;DHT22;46574;52.818;6.516;2024-03-08T13:53:59;12.10;99.90
60723;DHT22;46574;52.818;6.516;2024-03-08T13:56:39;12.30;99.90
60723;DHT22;46574;52.818;6.516;2024-03-08T13:59:11;12.40;99.90
60723;DHT22;46574;52.818;6.516;2024-03-08T14:01:37;12.70;99.90
60723;DHT22;46574;52.818;6.516;2024-03-08T14:04:09;12.80;99.90
60723;DHT22;46574;52.818;6.516;2024-03-08T14:06:35;12.50;99.90
60723;DHT22;46574;52.818;6.516;2024-03-08T14:09:00;12.20;99.90
60723;DHT22;46574;52.818;6.516;2024-03-08T14:11:27;12.50;99.90
60723;DHT22;46574;52.818;6.516;2024-03-08T14:13:53;12.90;99.90
60723;DHT22;46574;52.818;6.516;2024-03-08T14:16:19;12.90;99.90
60723;DHT22;46574;52.818;6.516;2024-03-08T14:18:45;12.50;99.90
60723;DHT22;46574;52.818;6.516;2024-03-08T14:21:10;12.40;99.90
60723;DHT22;46574;52.818;6.516;2024-03-08T14:23:36;12.40;99.90
60723;DHT22;46574;52.818;6.516;2024-03-08T14:26:03;12.50;99.90
60723;DHT22;46574;52.818;6.516;2024-03-08T14:28:29;12.80;99.90
60723;DHT22;46574;52.818;6.516;2024-03-08T14:30:55;13.00;99.90
60723;DHT22;46574;52.818;6.516;2024-03-08T14:33:21;13.00;99.90
60723;DHT22;46574;52.818;6.516;2024-03-08T14:35:46;13.10;99.90
60723;DHT22;46574;52.818;6.516;2024-03-08T14:38:12;12.80;99.90
60723;DHT22;46574;52.818;6.516;2024-03-08T14:40:39;12.40;99.90
60723;DHT22;46574;52.818;6.516;2024-03-08T14:43:05;12.10;99.90
60723;DHT22;46574;52.818;6.516;2024-03-08T14:45:31;12.00;99.90
60723;DHT22;46574;52.818;6.516;2024-03-08T14:47:57;12.00;99.90
60723;DHT22;46574;52.818;6.516;2024-03-08T14:50:24;12.20;99.90
60723;DHT22;46574;52.818;6.516;2024-03-08T14:52:51;12.20;99.90
60723;DHT22;46574;52.818;6.516;2024-03-08T14:55:20;12.00;99.90
60723;DHT22;46574;52.818;6.516;2024-03-08T14:57:50;12.10;99.90
60723;DHT22;46574;52.818;6.516;2024-03-08T15:00:18;12.10;99.90
60723;DHT22;46574;52.818;6.516;2024-03-08T15:02:55;11.90;99.90
60723;DHT22;46574;52.818;6.516;2024-03-08T15:05:22;11.70;99.90
60723;DHT22;46574;52.818;6.516;2024-03-08T15:07:54;11.40;99.90
60723;DHT22;46574;52.818;6.516;2024-03-08T15:10:20;11.50;99.90
60723;DHT22;46574;52.818;6.516;2024-03-08T15:12:50;11.70;99.90
60723;DHT22;46574;52.818;6.516;2024-03-08T15:15:18;11.80;99.90
60723;DHT22;46574;52.818;6.516;2024-03-08T15:17:44;11.60;99.90
60723;DHT22;46574;52.818;6.516;2024-03-08T15:20:13;11.30;99.90
60723;DHT22;46574;52.818;6.516;2024-03-08T15:22:48;11.10;99.90
60723;DHT22;46574;52.818;6.516;2024-03-08T15:25:13;10.90;99.90
60723;DHT22;46574;52.818;6.516;2024-03-08T15:27:46;11.00;99.90
60723;DHT22;46574;52.818;6.516;2024-03-08T15:30:12;10.90;99.90
60723;DHT22;46574;52.818;6.516;2024-03-08T15:32:45;10.80;99.90
60723;DHT22;46574;52.818;6.516;2024-03-08T15:35:13;10.60;99.90
60723;DHT22;46574;52.818;6.516;2024-03-08T15:37:45;10.50;99.90
60723;DHT22;46574;52.818;6.516;2024-03-08T15:40:12;10.40;99.90
60723;DHT22;46574;52.818;6.516;2024-03-08T15:42:48;10.30;99.90
60723;DHT22;46574;52.818;6.516;2024-03-08T15:45:15;10.30;99.90
60723;DHT22;46574;52.818;6.516;2024-03-08T15:47:42;10.20;99.90
60723;DHT22;46574;52.818;6.516;2024-03-08T15:50:10;10.10;99.90
60723;DHT22;46574;52.818;6.516;2024-03-08T15:52:39;10.10;99.90
60723;DHT22;46574;52.818;6.516;2024-03-08T15:55:08;10.00;99.90
60723;DHT22;46574;52.818;6.516;2024-03-08T15:57:34;10.00;99.90